createdAt,value
2022-11-02T00:04:10.694Z,20.15
2022-11-02T00:09:04.974Z,20.25
2022-11-02T00:13:58.627Z,20.36
2022-11-02T00:18:59.426Z,20.37
2022-11-02T00:23:53.640Z,20.32
2022-11-02T00:28:46.986Z,20.21
2022-11-02T00:33:40.195Z,20.24
2022-11-02T00:38:35.998Z,20.37
2022-11-02T00:43:28.894Z,20.36
2022-11-02T00:48:22.449Z,20.26
2022-11-02T00:53:15.774Z,20.35
2022-11-02T00:58:16.130Z,20.36
2022-11-02T01:03:09.617Z,20.24
2022-11-02T01:08:03.896Z,20.22
2022-11-02T01:12:58.627Z,20.31
2022-11-02T01:17:53.005Z,20.31
2022-11-02T01:22:46.178Z,20.31
2022-11-02T01:27:39.790Z,20.31
2022-11-02T01:32:32.524Z,20.30
2022-11-02T01:37:26.171Z,20.17
2022-11-02T01:42:24.803Z,20.30
2022-11-02T01:47:32.285Z,20.06
2022-11-02T01:52:39.038Z,20.29
2022-11-02T01:57:34.575Z,20.30
2022-11-02T02:02:28.883Z,20.31
2022-11-02T02:07:25.119Z,20.31
2022-11-02T02:12:18.753Z,20.20
2022-11-02T02:17:37.758Z,20.31
2022-11-02T02:22:33.569Z,20.30
2022-11-02T02:27:47.220Z,20.29
2022-11-02T02:32:56.736Z,20.23
2022-11-02T02:38:02.674Z,20.17
2022-11-02T02:43:29.214Z,20.15
2022-11-02T02:48:31.232Z,20.12
2022-11-02T02:53:36.132Z,20.29
2022-11-02T02:58:36.433Z,20.14
2022-11-02T03:03:35.438Z,20.15
2022-11-02T03:08:30.511Z,20.27
2022-11-02T03:13:48.447Z,20.27
2022-11-02T03:18:49.759Z,20.26
2022-11-02T03:24:10.033Z,20.25
2022-11-02T03:30:01.439Z,20.25
2022-11-02T03:34:59.534Z,20.22
2022-11-02T03:40:11.807Z,20.16
2022-11-02T03:45:39.814Z,20.20
2022-11-02T03:50:53.567Z,20.14
2022-11-02T03:56:09.504Z,19.94
2022-11-02T04:01:10.980Z,20.14
2022-11-02T04:06:05.372Z,20.22
2022-11-02T04:11:19.909Z,20.03
2022-11-02T04:16:15.841Z,20.19
2022-11-02T04:21:28.580Z,20.18
2022-11-02T04:26:43.942Z,20.16
2022-11-02T04:31:37.058Z,20.16
2022-11-02T04:36:31.971Z,20.04
2022-11-02T04:41:43.844Z,20.15
2022-11-02T04:46:44.975Z,20.16
2022-11-02T04:51:47.161Z,20.11
2022-11-02T04:56:43.812Z,20.14
2022-11-02T05:01:38.850Z,20.11
2022-11-02T05:06:32.555Z,20.15
2022-11-02T05:11:26.020Z,19.99
2022-11-02T05:16:21.531Z,20.13
2022-11-02T05:21:17.890Z,19.99
2022-11-02T05:26:12.358Z,20.04
2022-11-02T05:31:09.502Z,20.10
2022-11-02T05:36:02.827Z,20.09
2022-11-02T05:41:03.233Z,19.97
2022-11-02T05:46:03.688Z,19.94
2022-11-02T05:51:01.964Z,20.05
2022-11-02T05:55:59.647Z,19.98
2022-11-02T06:00:53.379Z,20.05
2022-11-02T06:05:46.970Z,20.07
2022-11-02T06:10:39.557Z,20.07
2022-11-02T06:15:37.162Z,20.06
2022-11-02T06:20:31.535Z,19.98
2022-11-02T06:25:25.476Z,19.94
2022-11-02T06:30:19.722Z,20.04
2022-11-02T06:35:13.715Z,20.02
2022-11-02T06:40:08.352Z,20.05
2022-11-02T06:45:03.140Z,20.04
2022-11-02T06:49:56.666Z,20.00
2022-11-02T06:54:51.134Z,20.04
2022-11-02T06:59:47.794Z,19.93
2022-11-02T07:04:43.304Z,19.96
2022-11-02T07:09:41.843Z,20.00
2022-11-02T07:14:35.295Z,19.99
2022-11-02T07:19:29.588Z,19.98
2022-11-02T07:24:23.614Z,19.95
2022-11-02T07:29:18.463Z,19.99
2022-11-02T07:34:16.667Z,19.97
2022-11-02T07:39:10.421Z,19.98
2022-11-02T07:44:03.933Z,19.94
2022-11-02T07:49:02.535Z,19.98
2022-11-02T07:53:56.837Z,19.97
2022-11-02T07:58:50.465Z,19.93
2022-11-02T08:03:43.706Z,19.82
2022-11-02T08:08:37.792Z,19.91
2022-11-02T08:13:33.161Z,19.88
2022-11-02T08:18:28.689Z,19.96
2022-11-02T08:23:22.048Z,19.83
2022-11-02T08:28:27.099Z,19.84
2022-11-02T08:33:20.419Z,19.80
2022-11-02T08:38:13.166Z,19.89
2022-11-02T08:43:08.739Z,19.78
2022-11-02T08:48:02.845Z,19.85
2022-11-02T08:52:56.510Z,19.81
2022-11-02T08:57:54.814Z,19.74
2022-11-02T09:03:14.114Z,19.71
2022-11-02T09:08:14.013Z,19.71
2022-11-02T09:13:10.330Z,19.72
2022-11-02T09:18:04.072Z,19.68
2022-11-02T09:22:57.650Z,19.64
2022-11-02T09:27:57.186Z,19.59
2022-11-02T09:33:04.244Z,19.70
2022-11-02T09:37:58.383Z,19.69
2022-11-02T09:43:09.321Z,19.50
2022-11-02T09:48:23.344Z,19.55
2022-11-02T09:53:40.731Z,19.52
2022-11-02T09:58:38.925Z,19.64
2022-11-02T10:03:46.296Z,19.52
2022-11-02T10:09:08.389Z,19.53
2022-11-02T10:14:28.223Z,19.61
2022-11-02T10:19:26.227Z,19.51
2022-11-02T10:24:22.714Z,19.46
2022-11-02T10:29:18.534Z,19.60
2022-11-02T10:34:28.414Z,19.55
2022-11-02T10:39:53.097Z,19.84
2022-11-02T10:45:00.325Z,19.88
2022-11-02T10:50:20.990Z,19.91
2022-11-02T10:55:52.116Z,19.86
2022-11-02T11:00:45.266Z,19.87
2022-11-02T11:05:49.863Z,19.85
2022-11-02T11:10:51.714Z,19.79
2022-11-02T11:15:53.219Z,19.83
2022-11-02T11:20:47.190Z,19.60
2022-11-02T11:25:41.868Z,19.70
2022-11-02T11:31:06.137Z,19.82
2022-11-02T11:36:01.749Z,19.70
2022-11-02T11:40:59.714Z,19.82
2022-11-02T11:46:06.490Z,19.80
2022-11-02T11:51:05.314Z,19.66
2022-11-02T11:55:59.980Z,19.80
2022-11-02T12:01:11.263Z,19.80
2022-11-02T12:06:08.479Z,19.79
2022-11-02T12:11:19.106Z,19.81
2022-11-02T12:16:22.499Z,19.82
2022-11-02T12:21:27.924Z,19.71
2022-11-02T12:26:36.032Z,19.83
2022-11-02T12:31:41.263Z,19.73
2022-11-02T12:42:27.812Z,19.74
2022-11-02T12:47:47.299Z,19.90
2022-11-02T12:52:44.929Z,19.88
2022-11-02T12:57:39.508Z,19.80
2022-11-02T13:02:37.023Z,19.89
2022-11-02T13:07:56.927Z,19.79
2022-11-02T13:12:53.896Z,19.89
2022-11-02T13:18:07.779Z,19.89
2022-11-02T13:23:08.456Z,19.91
2022-11-02T13:28:06.264Z,19.71
2022-11-02T13:33:26.536Z,19.98
2022-11-02T13:38:28.576Z,19.90
2022-11-02T13:43:36.707Z,19.91
2022-11-02T13:48:48.805Z,19.92
2022-11-02T13:53:52.368Z,19.92
2022-11-02T13:58:53.854Z,19.63
2022-11-02T14:03:49.889Z,19.90
2022-11-02T14:08:51.055Z,19.93
2022-11-02T14:14:04.259Z,19.95
2022-11-02T14:19:34.283Z,19.86
2022-11-02T14:24:40.451Z,19.95
2022-11-02T14:29:48.573Z,19.88
2022-11-02T14:35:01.118Z,19.95
2022-11-02T14:40:12.576Z,19.78
2022-11-02T14:45:08.130Z,19.96
2022-11-02T14:50:15.120Z,19.83
2022-11-02T14:55:20.164Z,19.96
2022-11-02T15:00:23.504Z,19.96
2022-11-02T15:05:39.644Z,19.94
2022-11-02T15:10:32.804Z,19.96
2022-11-02T15:15:25.417Z,19.96
2022-11-02T15:20:27.742Z,19.92
2022-11-02T15:25:35.937Z,19.88
2022-11-02T15:30:30.396Z,19.86
2022-11-02T15:35:26.656Z,19.93
2022-11-02T15:40:23.487Z,19.75
2022-11-02T15:45:48.831Z,19.97
2022-11-02T15:51:01.314Z,19.98
2022-11-02T15:56:13.541Z,19.96
2022-11-02T16:01:22.067Z,19.95
2022-11-02T16:06:16.315Z,19.92
2022-11-02T16:11:17.604Z,19.77
2022-11-02T16:16:19.022Z,19.81
2022-11-02T16:21:16.650Z,19.94
2022-11-02T16:26:20.359Z,19.84
2022-11-02T16:31:18.469Z,19.97
2022-11-02T16:36:17.255Z,19.86
2022-11-02T16:41:10.848Z,19.83
2022-11-02T16:46:06.752Z,19.84
2022-11-02T16:51:14.844Z,19.73
2022-11-02T16:56:16.732Z,19.84
2022-11-02T17:01:24.297Z,19.83
2022-11-02T17:06:19.539Z,19.98
2022-11-02T17:11:16.543Z,19.85
2022-11-02T17:16:11.965Z,19.99
2022-11-02T17:21:14.814Z,19.99
2022-11-02T17:26:22.886Z,19.99
2022-11-02T17:31:20.621Z,19.96
2022-11-02T17:36:15.103Z,19.95
2022-11-02T17:41:30.786Z,19.93
2022-11-02T17:46:23.463Z,19.89
2022-11-02T17:51:16.337Z,19.90
2022-11-02T17:56:11.366Z,19.76
2022-11-02T18:01:06.883Z,19.76
2022-11-02T18:06:00.945Z,19.93
2022-11-02T18:10:55.504Z,20.07
2022-11-02T18:15:49.629Z,20.09
2022-11-02T18:20:43.102Z,19.99
2022-11-02T18:25:36.702Z,19.98
2022-11-02T18:30:32.455Z,20.16
2022-11-02T18:35:25.652Z,20.13
2022-11-02T18:40:21.405Z,20.12
2022-11-02T18:45:15.645Z,20.12
2022-11-02T18:50:09.794Z,20.09
2022-11-02T18:55:04.090Z,19.99
2022-11-02T18:59:56.770Z,19.94
2022-11-02T19:04:49.843Z,20.10
2022-11-02T19:09:43.738Z,20.16
2022-11-02T19:14:40.967Z,20.17
2022-11-02T19:19:34.311Z,20.09
2022-11-02T19:24:27.598Z,19.88
2022-11-02T19:29:21.607Z,19.86
2022-11-02T19:34:15.298Z,19.90
2022-11-02T19:39:14.325Z,19.82
2022-11-02T19:44:08.613Z,19.79
2022-11-02T19:49:02.016Z,19.84
2022-11-02T19:53:58.728Z,19.74
2022-11-02T19:58:52.847Z,19.81
2022-11-02T20:03:47.973Z,19.77
2022-11-02T20:08:41.373Z,19.68
2022-11-02T20:13:37.125Z,19.65
2022-11-02T20:18:31.013Z,19.64
2022-11-02T20:23:24.867Z,19.72
2022-11-02T20:28:18.597Z,19.90
2022-11-02T20:33:11.634Z,19.96
2022-11-02T20:38:05.597Z,19.91
2022-11-02T20:42:59.776Z,19.74
2022-11-02T20:47:57.759Z,19.88
2022-11-02T20:52:53.570Z,19.98
2022-11-02T20:57:49.573Z,19.99
2022-11-02T21:02:43.461Z,19.97
2022-11-02T21:07:37.087Z,19.92
2022-11-02T21:12:48.571Z,19.83
2022-11-02T21:17:44.168Z,19.75
2022-11-02T21:22:37.733Z,19.78
2022-11-02T21:27:31.734Z,19.63
2022-11-02T21:32:29.856Z,19.73
2022-11-02T21:37:23.451Z,19.82
2022-11-02T21:42:16.627Z,19.84
2022-11-02T21:47:11.395Z,19.74
2022-11-02T21:52:04.639Z,19.82
2022-11-02T21:56:59.586Z,19.83
2022-11-02T22:01:53.599Z,19.82
2022-11-02T22:06:47.058Z,19.79
2022-11-02T22:11:41.159Z,19.80
2022-11-02T22:16:36.683Z,19.81
2022-11-02T22:21:32.013Z,19.76
2022-11-02T22:26:27.780Z,19.77
2022-11-02T22:31:30.113Z,19.70
2022-11-02T22:36:25.664Z,19.71
2022-11-02T22:41:26.655Z,19.66
2022-11-02T22:46:19.907Z,19.66
2022-11-02T22:51:14.628Z,19.64
2022-11-02T22:56:29.472Z,19.75
2022-11-02T23:01:29.139Z,19.73
2022-11-02T23:06:23.792Z,19.61
2022-11-02T23:11:24.484Z,19.52
2022-11-02T23:16:22.174Z,19.74
2022-11-02T23:21:16.256Z,19.73
2022-11-02T23:26:09.313Z,19.62
2022-11-02T23:31:21.217Z,19.61
2022-11-02T23:36:16.016Z,19.71
2022-11-02T23:41:08.926Z,19.60
2022-11-02T23:46:02.626Z,19.58
2022-11-02T23:51:16.234Z,19.55
2022-11-02T23:56:35.118Z,19.68
